Time;durP1;ratioP1;P1;durP2;ratioP2;P2;SDS_P1;SDS_P2;PMS_P1;PMS_P2;Temp;Humidity;BMP_temperature;BMP_pressure;BME280_temperature;BME280_humidity;BME280_pressure;Samples;Min_cycle;Max_cycle;Signal;HPM_P1;HPM_P2
2022/06/25 00:01:09;;;;;;;2.45;1.50;;;;;;;13.29;100.00;95360.38;5036799;28;20056;-79
2022/06/25 00:03:35;;;;;;;2.35;1.60;;;;;;;13.32;100.00;95364.31;5041874;28;20103;-79
2022/06/25 00:06:01;;;;;;;2.55;1.60;;;;;;;13.28;100.00;95361.44;5050735;28;20044;-79
2022/06/25 00:08:27;;;;;;;4.05;1.75;;;;;;;13.30;100.00;95366.44;5048833;28;20052;-79
2022/06/25 00:10:53;;;;;;;1.80;1.45;;;;;;;13.29;100.00;95365.66;5039633;28;20033;-79
2022/06/25 00:13:19;;;;;;;2.90;1.75;;;;;;;13.33;100.00;95361.38;5041138;28;20052;-79
2022/06/25 00:15:44;;;;;;;3.45;1.75;;;;;;;13.32;100.00;95370.38;5037273;28;20041;-79
2022/06/25 00:18:11;;;;;;;3.58;1.48;;;;;;;13.26;100.00;95371.53;5049810;28;20044;-79
2022/06/25 00:20:37;;;;;;;3.33;1.60;;;;;;;13.42;100.00;95373.94;5046354;28;20069;-79
2022/06/25 00:23:03;;;;;;;2.40;1.60;;;;;;;13.29;100.00;95368.31;5057314;28;20069;-79
2022/06/25 00:25:28;;;;;;;3.33;1.63;;;;;;;13.28;100.00;95365.97;5051478;28;20051;-79
2022/06/25 00:27:54;;;;;;;5.05;1.60;;;;;;;13.40;100.00;95365.53;5035141;28;20650;-79
2022/06/25 00:30:19;;;;;;;3.35;1.67;;;;;;;13.34;100.00;95368.25;5042814;28;20041;-79
2022/06/25 00:32:45;;;;;;;3.13;1.83;;;;;;;13.28;100.00;95363.31;5048975;28;20041;-79
2022/06/25 00:35:11;;;;;;;2.58;1.60;;;;;;;13.30;100.00;95367.25;5048440;28;20453;-80
2022/06/25 00:37:36;;;;;;;4.63;1.70;;;;;;;13.33;100.00;95365.84;5057444;28;20406;-80
2022/06/25 00:40:02;;;;;;;2.08;1.55;;;;;;;13.37;100.00;95366.09;5045616;28;20064;-78
2022/06/25 00:42:28;;;;;;;2.45;1.70;;;;;;;13.32;100.00;95359.78;5040291;28;20454;-78
2022/06/25 00:44:55;;;;;;;3.40;1.88;;;;;;;13.35;100.00;95363.75;5046231;28;20037;-77
2022/06/25 00:47:21;;;;;;;2.20;1.70;;;;;;;13.33;100.00;95360.56;5038735;28;20394;-79
2022/06/25 00:49:47;;;;;;;4.20;1.85;;;;;;;13.43;100.00;95359.66;5049639;28;20551;-81
2022/06/25 00:52:15;;;;;;;5.03;2.05;;;;;;;13.34;100.00;95362.94;5041740;28;20044;-80
2022/06/25 00:55:01;;;;;;;4.88;1.80;;;;;;;13.38;100.00;95357.09;5040245;28;20427;-80
2022/06/25 00:57:28;;;;;;;3.15;1.80;;;;;;;13.37;100.00;95360.81;5037180;28;20511;-80
2022/06/25 01:00:01;;;;;;;4.00;1.80;;;;;;;13.27;100.00;95351.94;5043899;28;20052;-80
2022/06/25 01:02:27;;;;;;;4.10;1.85;;;;;;;13.34;100.00;95357.66;5044648;28;20492;-80
2022/06/25 01:04:52;;;;;;;2.45;1.70;;;;;;;13.44;100.00;95351.44;5038093;28;20125;-80
2022/06/25 01:07:18;;;;;;;6.10;1.88;;;;;;;13.38;100.00;95354.47;5039167;28;20037;-80
2022/06/25 01:09:50;;;;;;;6.75;2.05;;;;;;;13.43;100.00;95354.34;5044242;28;20601;-80
2022/06/25 01:12:16;;;;;;;2.88;1.60;;;;;;;13.40;100.00;95345.16;5045412;28;20059;-79
2022/06/25 01:14:42;;;;;;;4.13;1.70;;;;;;;13.33;100.00;95350.81;5048313;28;20033;-79
2022/06/25 01:17:09;;;;;;;5.97;1.70;;;;;;;13.41;100.00;95348.59;5045241;28;20025;-79
2022/06/25 01:19:35;;;;;;;5.40;1.80;;;;;;;13.39;100.00;95342.78;5043089;28;20499;-79
2022/06/25 01:22:05;;;;;;;3.50;1.75;;;;;;;13.45;100.00;95344.28;5045121;28;20376;-79
2022/06/25 01:24:31;;;;;;;2.55;1.65;;;;;;;13.45;100.00;95336.38;5049785;28;20049;-79
2022/06/25 01:26:57;;;;;;;2.60;1.75;;;;;;;13.33;100.00;95340.22;5045942;28;20044;-79
2022/06/25 01:29:23;;;;;;;4.93;1.95;;;;;;;13.40;100.00;95344.38;5038080;28;20495;-80
2022/06/25 01:31:49;;;;;;;2.88;1.80;;;;;;;13.28;100.00;95348.22;5045616;28;20056;-80
2022/06/25 01:34:14;;;;;;;3.22;1.80;;;;;;;13.32;100.00;95338.66;5040378;28;20041;-79
2022/06/25 01:36:39;;;;;;;3.20;1.92;;;;;;;13.36;100.00;95343.38;5045030;28;20045;-79
2022/06/25 01:39:05;;;;;;;3.33;1.92;;;;;;;13.39;100.00;95340.16;5043470;28;20045;-79
2022/06/25 01:41:30;;;;;;;2.72;1.77;;;;;;;13.41;100.00;95338.03;5044812;28;20048;-79
2022/06/25 01:43:56;;;;;;;3.88;1.73;;;;;;;13.38;100.00;95346.53;5032555;28;20045;-79
2022/06/25 01:46:21;;;;;;;4.65;1.88;;;;;;;13.41;100.00;95343.31;5034239;28;20053;-79
2022/06/25 01:48:47;;;;;;;3.08;1.95;;;;;;;13.49;100.00;95342.66;5043406;28;20087;-79
2022/06/25 01:51:13;;;;;;;5.90;2.00;;;;;;;13.36;100.00;95353.97;5053508;28;20402;-79
2022/06/25 01:53:39;;;;;;;3.45;2.00;;;;;;;13.30;100.00;95356.66;5043963;28;20048;-79
2022/06/25 01:56:07;;;;;;;5.53;2.00;;;;;;;13.31;100.00;95347.66;5046835;28;20589;-79
2022/06/25 01:58:33;;;;;;;5.53;1.90;;;;;;;13.40;100.00;95349.66;5044737;28;20041;-79
2022/06/25 02:00:58;;;;;;;5.18;2.05;;;;;;;13.43;100.00;95351.72;5052551;28;20048;-79
2022/06/25 02:03:25;;;;;;;5.28;2.08;;;;;;;13.44;100.00;95350.66;5042230;28;20121;-79
2022/06/25 02:05:57;;;;;;;3.28;1.90;;;;;;;13.45;100.00;95352.22;5049400;28;20072;-79
2022/06/25 02:08:33;;;;;;;4.53;2.13;;;;;;;13.39;100.00;95350.72;5041340;28;20037;-79
2022/06/25 02:11:00;;;;;;;3.22;1.90;;;;;;;13.34;100.00;95341.81;5049858;28;20431;-79
2022/06/25 02:13:26;;;;;;;3.17;1.85;;;;;;;13.38;100.00;95357.88;5053632;28;20045;-79
2022/06/25 02:15:53;;;;;;;4.53;1.98;;;;;;;13.29;100.00;95355.09;5054213;28;20057;-79
2022/06/25 02:18:19;;;;;;;5.07;2.00;;;;;;;13.28;100.00;95353.50;5050385;28;20498;-78
2022/06/25 02:20:45;;;;;;;2.50;1.70;;;;;;;13.28;100.00;95361.44;5049778;28;20041;-79
2022/06/25 02:23:12;;;;;;;4.20;2.00;;;;;;;13.29;100.00;95359.59;5037540;28;20064;-79
2022/06/25 02:25:37;;;;;;;3.88;2.08;;;;;;;13.29;100.00;95355.09;5036765;28;20042;-79
2022/06/25 02:28:03;;;;;;;3.78;2.33;;;;;;;13.27;100.00;95361.75;5043765;28;20052;-79
2022/06/25 02:30:29;;;;;;;4.63;2.00;;;;;;;13.26;100.00;95363.59;5049364;28;20049;-79
2022/06/25 02:32:54;;;;;;;2.97;1.95;;;;;;;13.31;100.00;95360.88;5050718;28;20584;-79
2022/06/25 02:35:20;;;;;;;5.82;2.00;;;;;;;13.24;100.00;95363.09;5052139;28;20526;-78
2022/06/25 02:37:45;;;;;;;4.15;2.00;;;;;;;13.34;100.00;95364.78;5045343;28;20495;-79
2022/06/25 02:40:12;;;;;;;3.28;1.85;;;;;;;13.41;100.00;95372.38;5034501;28;20037;-78
2022/06/25 02:42:38;;;;;;;2.90;1.83;;;;;;;13.41;100.00;95372.38;5039374;28;20059;-79
2022/06/25 02:45:06;;;;;;;3.97;1.88;;;;;;;13.31;100.00;95368.78;5047859;28;20041;-79
2022/06/25 02:47:32;;;;;;;3.20;1.92;;;;;;;13.40;100.00;95371.56;5045497;28;20103;-79
2022/06/25 02:49:57;;;;;;;2.50;1.80;;;;;;;13.38;100.00;95370.31;5050834;28;20494;-79
2022/06/25 02:52:23;;;;;;;7.78;1.92;;;;;;;13.31;100.00;95368.78;5041496;28;20037;-78
2022/06/25 02:54:49;;;;;;;2.85;1.95;;;;;;;13.30;100.00;95361.97;5050331;28;20041;-79
2022/06/25 02:59:59;;;;;;;5.47;1.92;;;;;;;13.33;100.00;95366.66;5048796;28;20120;-79
2022/06/25 03:02:24;;;;;;;4.05;1.75;;;;;;;13.26;100.00;95360.16;5049119;28;20828;-78
2022/06/25 03:04:49;;;;;;;4.53;2.20;;;;;;;13.26;100.00;95366.25;5050879;28;20430;-79
2022/06/25 03:07:15;;;;;;;3.90;2.20;;;;;;;13.22;100.00;95370.53;5052115;28;20510;-78
2022/06/25 03:09:40;;;;;;;4.45;2.95;;;;;;;13.19;100.00;95368.47;5043573;28;20046;-78
2022/06/25 03:12:06;;;;;;;4.80;2.10;;;;;;;13.31;100.00;95374.06;5043171;28;20041;-78
2022/06/25 03:14:32;;;;;;;3.30;1.85;;;;;;;13.34;100.00;95368.25;5042905;28;20046;-78
2022/06/25 03:16:57;;;;;;;4.55;2.00;;;;;;;13.38;100.00;95367.69;5050577;28;20048;-77
2022/06/25 03:19:23;;;;;;;3.47;1.52;;;;;;;13.31;100.00;95374.06;5044738;28;20183;-80
2022/06/25 03:21:48;;;;;;;5.25;2.10;;;;;;;13.22;100.00;95375.81;5044718;28;20570;-80
2022/06/25 03:24:14;;;;;;;4.53;2.00;;;;;;;13.32;100.00;95385.44;5045187;28;20045;-79
2022/06/25 03:26:39;;;;;;;3.28;1.90;;;;;;;13.32;100.00;95383.59;5049360;28;20418;-79
2022/06/25 03:29:05;;;;;;;7.90;2.10;;;;;;;13.34;100.00;95383.28;5046561;28;20037;-79
2022/06/25 03:31:31;;;;;;;4.97;1.98;;;;;;;13.37;100.00;95381.97;5046433;28;20037;-80
2022/06/25 03:33:56;;;;;;;4.68;1.90;;;;;;;13.44;100.00;95392.94;5043691;28;20048;-79
2022/06/25 03:36:22;;;;;;;3.17;1.85;;;;;;;13.53;100.00;95396.47;5047381;28;20445;-79
2022/06/25 03:38:47;;;;;;;4.25;2.00;;;;;;;13.51;100.00;95390.72;5047579;28;20044;-78
2022/06/25 03:43:57;;;;;;;10.73;2.00;;;;;;;13.40;100.00;95391.94;5043059;28;20045;-78
2022/06/25 03:46:23;;;;;;;5.13;2.05;;;;;;;13.43;100.00;95396.66;5046088;28;20053;-78
2022/06/25 03:48:48;;;;;;;4.60;1.90;;;;;;;13.42;100.00;95395.06;5039514;28;20136;-78
2022/06/25 03:51:14;;;;;;;3.47;1.92;;;;;;;13.54;100.00;95392.78;5050180;28;20467;-80
2022/06/25 03:53:39;;;;;;;3.22;1.95;;;;;;;13.54;100.00;95392.78;5048560;28;20071;-78
2022/06/25 03:56:05;;;;;;;4.45;2.00;;;;;;;13.51;100.00;95399.41;5050748;28;20112;-78
2022/06/25 03:58:31;;;;;;;3.17;2.00;;;;;;;13.51;100.00;95398.63;5040463;28;20037;-79
2022/06/25 04:00:56;;;;;;;2.67;1.90;;;;;;;13.54;100.00;95398.06;5047762;28;20044;-79
2022/06/25 04:03:21;;;;;;;9.85;2.10;;;;;;;13.55;100.00;95399.63;5050095;28;20032;-78
2022/06/25 04:05:47;;;;;;;8.77;1.90;;;;;;;13.63;100.00;95406.91;5047700;28;20041;-79
2022/06/25 04:08:13;;;;;;;6.35;2.42;;;;;;;13.63;100.00;95401.63;5040672;28;20107;-79
2022/06/25 04:10:38;;;;;;;3.53;2.00;;;;;;;13.58;100.00;95404.34;5039802;28;20067;-79
2022/06/25 04:13:04;;;;;;;4.30;2.00;;;;;;;13.46;100.00;95396.06;5037069;28;20045;-79
2022/06/25 04:15:29;;;;;;;7.40;2.00;;;;;;;13.56;100.00;95401.22;5049428;28;20542;-78
2022/06/25 04:17:55;;;;;;;6.78;2.20;;;;;;;13.61;100.00;95409.03;5045566;28;20038;-78
2022/06/25 04:20:20;;;;;;;2.90;1.60;;;;;;;13.63;100.00;95409.56;5043920;28;20688;-79
2022/06/25 04:22:46;;;;;;;7.47;1.95;;;;;;;13.59;100.00;95405.91;5049617;28;20045;-79
2022/06/25 04:25:11;;;;;;;4.50;2.15;;;;;;;13.68;100.00;95409.44;5050590;28;20102;-79
2022/06/25 04:30:21;;;;;;;3.95;1.75;;;;;;;13.59;100.00;95411.19;5046583;28;20045;-79
2022/06/25 04:32:46;;;;;;;4.25;2.47;;;;;;;13.68;100.00;95414.72;5050629;28;20052;-79
2022/06/25 04:35:12;;;;;;;3.67;1.70;;;;;;;13.77;100.00;95416.72;5045419;28;20037;-79
2022/06/25 04:37:37;;;;;;;3.78;1.90;;;;;;;13.75;100.00;95418.84;5042950;28;20037;-79
2022/06/25 04:40:03;;;;;;;3.42;1.90;;;;;;;13.76;100.00;95420.44;5040826;28;20495;-79
2022/06/25 04:42:29;;;;;;;2.97;1.50;;;;;;;13.73;100.00;95421.00;5051600;28;20037;-78
2022/06/25 04:44:54;;;;;;;4.00;1.90;;;;;;;13.78;100.00;95419.06;5045643;28;20045;-78
2022/06/25 04:47:20;;;;;;;8.02;2.10;;;;;;;13.82;100.00;95420.06;5044175;28;20048;-79
2022/06/25 04:49:45;;;;;;;2.65;1.80;;;;;;;13.78;100.00;95418.28;5032866;28;20049;-78
2022/06/25 04:52:11;;;;;;;3.83;1.85;;;;;;;13.78;100.00;95426.22;5034592;28;20033;-79
2022/06/25 04:54:36;;;;;;;8.25;1.80;;;;;;;13.84;100.00;95427.69;5042691;28;20124;-78
2022/06/25 04:57:02;;;;;;;5.18;1.92;;;;;;;13.86;100.00;95421.03;5045502;28;20430;-78
2022/06/25 04:59:27;;;;;;;2.65;1.77;;;;;;;13.90;100.00;95437.09;5042739;28;20045;-79
2022/06/25 05:01:53;;;;;;;3.25;1.90;;;;;;;13.91;100.00;95436.03;5042539;28;20040;-78
2022/06/25 05:04:19;;;;;;;3.78;2.08;;;;;;;14.02;100.00;95437.41;5048739;28;20451;-78
2022/06/25 05:06:44;;;;;;;5.10;2.05;;;;;;;14.04;100.00;95437.91;5048008;28;20080;-79
2022/06/25 05:09:11;;;;;;;3.42;2.05;;;;;;;14.16;100.00;95455.16;5039992;28;20162;-79
2022/06/25 05:11:37;;;;;;;2.05;1.63;;;;;;;14.24;100.00;95449.19;5046542;28;20041;-77
2022/06/25 05:14:02;;;;;;;2.75;1.90;;;;;;;14.30;100.00;95450.66;5037144;28;20044;-77
2022/06/25 05:16:28;;;;;;;8.02;2.00;;;;;;;14.35;100.00;95447.94;5046682;28;20037;-78
2022/06/25 05:18:53;;;;;;;2.88;2.00;;;;;;;14.42;100.00;95446.75;5039997;28;20068;-78
2022/06/25 05:21:19;;;;;;;4.13;2.00;;;;;;;14.38;100.00;95457.91;5048624;28;20441;-79
2022/06/25 05:23:45;;;;;;;5.35;1.83;;;;;;;14.53;100.00;95453.41;5045289;28;20072;-78
2022/06/25 05:26:10;;;;;;;3.03;2.10;;;;;;;14.69;100.00;95465.28;5041713;28;20079;-78
2022/06/25 05:28:36;;;;;;;4.65;1.92;;;;;;;14.73;100.00;95457.53;5041219;28;20068;-79
2022/06/25 05:31:02;;;;;;;2.92;1.80;;;;;;;14.74;100.00;95464.41;5054181;28;20155;-79
2022/06/25 05:33:27;;;;;;;4.97;2.10;;;;;;;14.75;100.00;95462.53;5051612;28;20045;-79
2022/06/25 05:35:53;;;;;;;2.90;1.60;;;;;;;14.77;100.00;95463.00;5049853;28;20388;-79
2022/06/25 05:38:19;;;;;;;6.95;2.03;;;;;;;14.93;100.00;95466.91;5050721;28;20124;-78
2022/06/25 05:40:44;;;;;;;5.40;1.95;;;;;;;14.85;100.00;95459.66;5042841;28;20119;-78
2022/06/25 05:43:10;;;;;;;3.63;1.90;;;;;;;14.88;100.00;95453.78;5043092;28;20045;-78
2022/06/25 05:45:35;;;;;;;6.85;1.80;;;;;;;14.96;100.00;95455.72;5045442;28;20053;-78
2022/06/25 05:48:00;;;;;;;5.05;2.00;;;;;;;14.93;100.00;95460.81;5044968;28;20490;-79
2022/06/25 05:50:26;;;;;;;3.03;1.90;;;;;;;14.91;100.00;95463.75;5047132;28;20614;-79
2022/06/25 05:52:53;;;;;;;2.80;1.80;;;;;;;14.98;100.00;95464.16;5049652;28;20041;-79
2022/06/25 05:55:19;;;;;;;3.50;1.80;;;;;;;15.14;100.00;95466.47;5047786;28;20040;-78
2022/06/25 05:57:46;;;;;;;3.33;1.90;;;;;;;15.12;100.00;95466.00;5049779;28;20044;-80
2022/06/25 06:00:12;;;;;;;2.95;1.90;;;;;;;15.11;100.00;95467.84;5050010;28;20033;-81
2022/06/25 06:02:37;;;;;;;5.03;1.90;;;;;;;15.21;100.00;95466.84;5044740;28;20048;-80
2022/06/25 06:05:03;;;;;;;3.60;1.77;;;;;;;15.29;100.00;95468.78;5035136;28;20037;-80
2022/06/25 06:07:29;;;;;;;5.35;2.03;;;;;;;15.44;100.00;95474.81;5035011;28;20059;-79
2022/06/25 06:09:54;;;;;;;3.20;1.70;;;;;;;15.44;100.00;95477.47;5056773;28;20045;-79
2022/06/25 06:12:20;;;;;;;3.85;1.65;;;;;;;15.39;100.00;95479.16;5048847;28;20099;-80
2022/06/25 06:14:45;;;;;;;3.03;1.80;;;;;;;15.44;100.00;95480.13;5050490;28;20079;-80
2022/06/25 06:17:11;;;;;;;2.83;1.63;;;;;;;15.40;100.00;95475.41;5051861;28;20045;-80
2022/06/25 06:19:36;;;;;;;3.05;1.70;;;;;;;15.47;100.00;95484.81;5044994;28;20469;-79
2022/06/25 06:22:02;;;;;;;5.55;1.90;;;;;;;15.53;100.00;95478.31;5049624;28;20037;-79
2022/06/25 06:24:28;;;;;;;2.75;1.65;;;;;;;15.51;100.00;95483.13;5051222;28;20041;-79
2022/06/25 06:26:53;;;;;;;7.15;2.00;;;;;;;15.49;100.00;95493.28;5048101;28;20053;-79
2022/06/25 06:29:19;;;;;;;4.28;1.88;;;;;;;15.65;100.00;95491.81;5050524;28;20045;-81
2022/06/25 06:31:45;;;;;;;4.45;1.88;;;;;;;15.67;100.00;95494.94;5044415;28;20408;-80
2022/06/25 06:34:10;;;;;;;6.78;1.98;;;;;;;15.82;100.00;95490.41;5048875;28;20052;-79
2022/06/25 06:36:36;;;;;;;5.95;1.90;;;;;;;15.80;100.00;95495.22;5047758;28;20049;-78
2022/06/25 06:39:01;;;;;;;4.45;2.10;;;;;;;15.86;100.00;95497.44;5043746;28;20053;-81
2022/06/25 06:41:27;;;;;;;4.20;2.10;;;;;;;15.87;100.00;95495.56;5045589;28;20041;-80
2022/06/25 06:43:52;;;;;;;3.35;1.80;;;;;;;15.92;100.00;95500.75;5045270;28;20537;-82
2022/06/25 06:46:19;;;;;;;9.65;2.15;;;;;;;15.89;100.00;95498.72;5048803;28;20037;-82
2022/06/25 06:48:44;;;;;;;2.40;1.80;;;;;;;16.02;100.00;95500.50;5043718;28;20046;-80
2022/06/25 06:51:10;;;;;;;2.63;1.73;;;;;;;16.02;100.00;95511.13;5039388;28;20064;-82
2022/06/25 06:53:36;;;;;;;2.38;1.70;;;;;;;15.93;100.00;95507.63;5044487;28;20087;-85
2022/06/25 06:56:01;;;;;;;2.15;1.70;;;;;;;16.13;100.00;95510.88;5045767;28;20490;-81
2022/06/25 06:58:29;;;;;;;7.82;2.13;;;;;;;16.17;100.00;95503.84;5037438;28;20037;-84
2022/06/25 07:00:55;;;;;;;3.47;1.80;;;;;;;16.31;100.00;95501.91;5049247;28;20041;-83
2022/06/25 07:03:20;;;;;;;4.75;1.80;;;;;;;16.49;100.00;95494.00;5048694;28;20493;-83
2022/06/25 07:05:46;;;;;;;3.92;1.92;;;;;;;16.55;100.00;95498.06;5048529;28;20125;-81
2022/06/25 07:08:11;;;;;;;5.82;1.80;;;;;;;16.65;100.00;95492.50;5042670;28;20091;-81
2022/06/25 07:10:37;;;;;;;9.43;2.20;;;;;;;16.51;100.00;95502.44;5038302;28;20094;-84
2022/06/25 07:13:02;;;;;;;2.40;1.80;;;;;;;16.62;100.00;95501.06;5034382;28;20084;-83
2022/06/25 07:15:28;;;;;;;5.03;1.90;;;;;;;16.73;100.00;95499.69;5048123;28;20041;-83
2022/06/25 07:17:53;;;;;;;3.28;2.00;;;;;;;16.75;100.00;95489.56;5040134;28;20773;-81
2022/06/25 07:20:18;;;;;;;2.90;1.90;;;;;;;16.94;100.00;95491.19;5043160;28;20040;-82
2022/06/25 07:22:44;;;;;;;6.85;2.78;;;;;;;16.96;100.00;95499.63;5044475;28;20037;-84
2022/06/25 07:25:09;;;;;;;4.20;2.08;;;;;;;17.06;100.00;95499.31;5043029;28;20548;-81
2022/06/25 07:27:35;;;;;;;3.35;2.13;;;;;;;16.98;100.00;95492.09;5038034;28;20045;-81
2022/06/25 07:30:00;;;;;;;3.38;2.00;;;;;;;16.95;100.00;95487.41;5049167;28;20057;-81
2022/06/25 07:32:26;;;;;;;2.97;2.10;;;;;;;17.10;100.00;95488.84;5037393;28;20503;-81
2022/06/25 07:34:51;;;;;;;5.28;1.88;;;;;;;16.89;100.00;95488.66;5040364;28;20041;-82
2022/06/25 07:37:17;;;;;;;3.17;2.00;;;;;;;16.96;100.00;95483.66;5038173;28;20049;-82
2022/06/25 07:39:43;;;;;;;3.97;1.98;;;;;;;16.96;100.00;95478.34;5039897;28;20488;-80
2022/06/25 07:42:08;;;;;;;5.85;1.83;;;;;;;16.95;100.00;95484.75;5039499;28;20041;-83
2022/06/25 07:44:34;;;;;;;3.47;1.80;;;;;;;16.92;100.00;95477.41;5040417;28;20055;-80
2022/06/25 07:46:59;;;;;;;3.22;1.98;;;;;;;16.91;100.00;95486.47;5040696;28;20116;-82
2022/06/25 07:49:25;;;;;;;3.33;2.10;;;;;;;16.92;100.00;95483.53;5056828;28;20120;-82
2022/06/25 07:51:56;;;;;;;3.08;1.92;;;;;;;17.03;100.00;95478.69;5038334;28;20044;-82
2022/06/25 07:54:29;;;;;;;4.97;2.05;;;;;;;17.03;100.00;95488.53;5047469;28;20836;-82
2022/06/25 07:56:55;;;;;;;3.30;1.95;;;;;;;17.03;100.00;95484.00;5035317;28;20046;-81
2022/06/25 07:59:21;;;;;;;2.90;1.83;;;;;;;17.19;100.00;95467.59;5046650;28;20053;-85
2022/06/25 08:01:47;;;;;;;3.28;1.95;;;;;;;16.86;100.00;95473.31;5037729;28;20041;-82
2022/06/25 08:04:13;;;;;;;2.45;1.92;;;;;;;16.82;100.00;95472.34;5046602;28;20043;-83
2022/06/25 08:06:41;;;;;;;3.03;2.15;;;;;;;16.78;100.00;95478.28;5040659;28;20052;-80
2022/06/25 08:09:07;;;;;;;3.72;2.00;;;;;;;16.59;100.00;95477.78;5038928;28;20064;-81
2022/06/25 08:11:33;;;;;;;2.63;2.05;;;;;;;16.75;100.00;95478.13;5045005;28;20450;-80
2022/06/25 08:13:59;;;;;;;5.93;1.98;;;;;;;16.82;100.00;95483.00;5033077;28;20041;-81
2022/06/25 08:16:25;;;;;;;2.95;1.90;;;;;;;16.93;100.00;95481.63;5043071;28;20041;-80
2022/06/25 08:18:54;;;;;;;5.75;2.15;;;;;;;16.68;100.00;95473.28;5045315;28;20434;-79
2022/06/25 08:21:20;;;;;;;3.92;2.33;;;;;;;16.55;100.00;95474.97;5044321;28;20498;-84
2022/06/25 08:23:45;;;;;;;3.63;2.30;;;;;;;16.82;100.00;95477.69;5031810;28;20041;-80
2022/06/25 08:26:11;;;;;;;2.80;2.00;;;;;;;16.99;100.00;95477.72;5036280;28;20041;-80
2022/06/25 08:28:36;;;;;;;4.85;2.15;;;;;;;17.02;100.00;95481.66;5036689;28;20056;-80
2022/06/25 08:31:03;;;;;;;2.95;2.00;;;;;;;17.07;100.00;95469.00;5038110;28;20048;-81
2022/06/25 08:33:29;;;;;;;6.10;2.30;;;;;;;17.09;100.00;95474.75;5036955;28;20045;-82
2022/06/25 08:35:54;;;;;;;3.70;2.10;;;;;;;16.97;100.00;95474.63;5037838;28;20414;-82
2022/06/25 08:38:20;;;;;;;4.40;2.13;;;;;;;16.94;100.00;95480.56;5032401;28;20099;-82
2022/06/25 08:40:46;;;;;;;2.95;2.00;;;;;;;17.21;100.00;95462.72;5052178;28;20049;-79
2022/06/25 08:43:12;;;;;;;3.45;2.10;;;;;;;17.11;100.00;95467.28;5041991;28;20045;-80
2022/06/25 08:45:37;;;;;;;5.47;2.13;;;;;;;17.09;100.00;95466.78;5036373;28;20490;-83
2022/06/25 08:48:11;;;;;;;4.15;2.25;;;;;;;17.17;100.00;95461.78;5031326;28;20052;-81
2022/06/25 08:50:37;;;;;;;4.30;2.38;;;;;;;17.17;100.00;95461.78;5039246;28;20045;-81
2022/06/25 08:53:03;;;;;;;4.70;2.20;;;;;;;17.33;100.00;95460.25;5036236;28;20518;-82
2022/06/25 08:55:38;;;;;;;3.35;2.13;;;;;;;17.31;100.00;95462.41;5035184;28;20045;-81
2022/06/25 08:58:05;;;;;;;3.10;2.17;;;;;;;17.30;100.00;95456.31;5029367;28;20117;-82
2022/06/25 09:00:32;;;;;;;3.30;2.00;;;;;;;17.59;100.00;95456.78;5029184;28;20053;-81
2022/06/25 09:02:59;;;;;;;2.50;1.95;;;;;;;17.97;100.00;95456.09;5039389;28;20048;-80
2022/06/25 09:05:30;;;;;;;7.85;2.40;;;;;;;18.00;100.00;95450.13;5037416;28;20124;-80
2022/06/25 09:07:57;;;;;;;4.35;2.10;;;;;;;17.93;100.00;95447.16;5036905;28;20045;-85
2022/06/25 09:10:25;;;;;;;4.22;2.00;;;;;;;17.82;100.00;95452.81;5030482;28;20520;-79
2022/06/25 09:12:55;;;;;;;3.30;2.28;;;;;;;17.77;100.00;95447.66;5043930;28;20048;-80
2022/06/25 09:15:24;;;;;;;4.15;2.30;;;;;;;17.91;100.00;95457.38;5040950;28;20044;-80
2022/06/25 09:17:51;;;;;;;3.50;2.35;;;;;;;17.77;100.00;95458.31;5039898;28;20058;-80
2022/06/25 09:20:21;;;;;;;2.47;2.08;;;;;;;17.82;100.00;95450.16;5039509;28;20523;-80
2022/06/25 09:23:13;;;;;;;4.85;2.40;;;;;;;17.90;100.00;95440.63;5043971;28;20048;-82
2022/06/25 09:25:41;;;;;;;3.08;2.10;;;;;;;17.99;100.00;95444.03;5039392;28;20057;-85
2022/06/25 09:28:07;;;;;;;9.38;2.42;;;;;;;18.53;100.00;95446.16;5040330;28;20037;-81
2022/06/25 09:30:32;;;;;;;7.03;3.58;;;;;;;18.63;100.00;95444.22;5043362;28;20048;-81
2022/06/25 09:33:00;;;;;;;2.92;2.10;;;;;;;18.43;100.00;95449.19;5043187;28;20039;-79
2022/06/25 09:35:30;;;;;;;4.03;2.25;;;;;;;18.53;97.76;95440.84;5038538;28;20057;-79
2022/06/25 09:38:06;;;;;;;4.50;2.20;;;;;;;18.87;98.42;95444.41;5040923;28;20041;-78
2022/06/25 09:40:33;;;;;;;3.45;2.20;;;;;;;18.89;100.00;95440.66;5035780;28;20033;-81
2022/06/25 09:42:59;;;;;;;4.85;2.25;;;;;;;18.80;100.00;95438.78;5042312;28;20102;-80
2022/06/25 09:45:25;;;;;;;7.43;2.50;;;;;;;18.82;100.00;95436.59;5049005;28;20059;-80
2022/06/25 09:47:55;;;;;;;3.92;2.08;;;;;;;19.25;87.25;95431.28;5049546;28;20514;-80
2022/06/25 09:50:21;;;;;;;2.40;1.88;;;;;;;19.39;85.17;95437.13;5045816;28;20052;-80
2022/06/25 09:52:59;;;;;;;4.80;2.00;;;;;;;19.36;88.21;95429.78;5049375;28;20044;-79
2022/06/25 09:55:33;;;;;;;3.53;1.95;;;;;;;19.36;90.36;95427.09;5045878;28;20048;-80
2022/06/25 09:58:02;;;;;;;5.70;2.00;;;;;;;19.31;88.62;95427.28;5045188;28;20041;-79
2022/06/25 10:00:29;;;;;;;2.60;2.08;;;;;;;19.96;84.80;95426.88;5049091;28;20507;-80
2022/06/25 10:02:57;;;;;;;2.63;1.90;;;;;;;19.61;90.74;95433.31;5047971;28;20044;-80
2022/06/25 10:05:47;;;;;;;3.15;1.98;;;;;;;19.85;82.78;95427.28;5046783;28;20037;-80
2022/06/25 10:08:15;;;;;;;4.13;2.10;;;;;;;19.72;90.38;95428.34;5039077;28;20041;-80
2022/06/25 10:10:44;;;;;;;4.57;1.90;;;;;;;20.09;82.84;95417.75;5040593;28;20069;-79
2022/06/25 10:13:10;;;;;;;3.20;1.85;;;;;;;20.08;82.81;95413.53;5048584;28;20095;-80
2022/06/25 10:15:38;;;;;;;2.60;1.73;;;;;;;20.27;78.38;95425.56;5047661;28;20049;-80
2022/06/25 10:18:09;;;;;;;2.72;1.88;;;;;;;20.71;86.65;95412.44;5051622;28;20469;-80
2022/06/25 10:20:34;;;;;;;2.63;1.90;;;;;;;20.43;79.59;95416.53;5053198;28;20068;-80
2022/06/25 10:23:02;;;;;;;5.47;1.90;;;;;;;20.35;79.79;95409.41;5053417;28;20045;-81
2022/06/25 10:25:28;;;;;;;3.67;1.63;;;;;;;20.62;74.16;95403.72;5048532;28;20577;-80
2022/06/25 10:28:23;;;;;;;3.45;1.70;;;;;;;20.13;77.51;95399.16;5046685;28;20525;-80
2022/06/25 10:30:50;;;;;;;3.15;1.98;;;;;;;19.99;85.68;95399.50;5042831;28;20048;-80
2022/06/25 10:36:16;;;;;;;2.75;2.08;;;;;;;20.08;79.53;95360.91;5998600;22;20059;-80
2022/06/25 10:44:31;;;;;;;1.75;1.65;;;;;;;21.60;73.52;95392.75;5054135;28;20498;-79
2022/06/25 10:47:10;;;;;;;3.08;2.00;;;;;;;21.84;77.94;95376.88;5058162;28;20045;-79
2022/06/25 10:49:35;;;;;;;2.60;1.70;;;;;;;22.11;72.01;95383.25;5036771;28;20055;-80
2022/06/25 10:52:03;;;;;;;2.45;1.55;;;;;;;21.86;66.99;95383.44;5049785;28;20045;-79
2022/06/25 10:54:29;;;;;;;3.75;1.50;;;;;;;22.09;68.39;95383.63;5023896;28;20409;-79
2022/06/25 10:56:58;;;;;;;2.17;1.70;;;;;;;22.20;64.79;95381.19;5052671;28;20111;-79
2022/06/25 10:59:34;;;;;;;1.85;1.52;;;;;;;22.01;57.64;95383.78;5019696;28;20682;-79
2022/06/25 11:02:11;;;;;;;1.98;1.60;;;;;;;23.07;71.15;95381.16;5048434;28;20666;-79
2022/06/25 11:04:38;;;;;;;2.72;1.77;;;;;;;23.69;70.03;95375.84;5053461;28;20045;-79
2022/06/25 11:07:07;;;;;;;2.45;1.52;;;;;;;24.07;56.29;95369.97;5147607;22;20112;-80
2022/06/25 11:09:32;;;;;;;3.45;1.80;;;;;;;24.17;54.68;95372.03;5023291;28;20048;-79
2022/06/25 11:11:58;;;;;;;2.28;1.52;;;;;;;24.23;55.84;95375.97;5036343;28;20042;-80
2022/06/25 11:14:24;;;;;;;1.80;1.48;;;;;;;24.43;54.74;95362.44;5036119;28;20053;-79
2022/06/25 11:16:51;;;;;;;2.47;1.67;;;;;;;24.68;56.25;95363.59;5036517;28;20053;-80
2022/06/25 11:19:18;;;;;;;1.60;1.50;;;;;;;25.18;52.06;95363.41;5030752;28;20037;-80
2022/06/25 11:21:45;;;;;;;3.28;1.80;;;;;;;25.34;52.61;95357.88;5035491;28;20038;-79
2022/06/25 11:24:18;;;;;;;2.47;1.70;;;;;;;25.55;50.15;95351.16;5035236;28;20115;-79
2022/06/25 11:29:47;;;;;;;4.22;1.98;;;;;;;24.42;62.11;95356.28;5036306;28;20087;-79
2022/06/25 11:32:20;;;;;;;3.20;1.85;;;;;;;23.55;59.21;95354.13;5024029;28;20045;-80
2022/06/25 11:34:59;;;;;;;2.13;1.70;;;;;;;22.94;61.44;95359.09;5027426;28;20113;-80
2022/06/25 11:37:25;;;;;;;2.72;1.80;;;;;;;23.00;60.75;95346.94;5023479;28;20041;-80
2022/06/25 11:39:51;;;;;;;3.22;1.80;;;;;;;23.44;60.08;95342.41;5030403;28;20038;-79
2022/06/25 11:42:17;;;;;;;2.67;1.73;;;;;;;24.60;53.63;95339.66;5018303;28;20034;-80
2022/06/25 11:44:48;;;;;;;2.85;2.00;;;;;;;24.75;53.78;95351.38;5032615;28;20064;-79